createdAt,value
2023-02-21T00:02:39.904Z,124.10
2023-02-21T00:05:25.356Z,124.20
2023-02-21T00:08:10.939Z,122.10
2023-02-21T00:10:56.213Z,130.97
2023-02-21T00:13:42.191Z,129.13
2023-02-21T00:16:27.598Z,124.50
2023-02-21T00:19:13.111Z,117.43
2023-02-21T00:21:58.555Z,117.13
2023-02-21T00:24:43.810Z,107.97
2023-02-21T00:27:28.740Z,118.87
2023-02-21T00:30:15.557Z,119.43
2023-02-21T00:33:00.658Z,113.00
2023-02-21T00:35:45.879Z,114.53
2023-02-21T00:38:31.462Z,111.83
2023-02-21T00:41:16.935Z,113.67
2023-02-21T00:44:02.222Z,108.27
2023-02-21T00:46:47.641Z,105.53
2023-02-21T00:49:33.016Z,106.50
2023-02-21T00:52:18.721Z,108.03
2023-02-21T00:55:04.177Z,112.67
2023-02-21T00:57:49.212Z,106.10
2023-02-21T01:00:34.872Z,102.27
2023-02-21T01:03:20.067Z,101.60
2023-02-21T01:06:09.967Z,108.93
2023-02-21T01:08:55.047Z,110.13
2023-02-21T01:11:40.146Z,107.97
2023-02-21T01:14:27.354Z,103.33
2023-02-21T01:17:13.895Z,110.27
2023-02-21T01:20:01.017Z,109.53
2023-02-21T01:22:47.372Z,118.03
2023-02-21T01:25:32.690Z,111.13
2023-02-21T01:28:17.925Z,119.77
2023-02-21T01:31:02.862Z,113.13
2023-02-21T01:33:47.992Z,122.10
2023-02-21T01:36:33.437Z,116.00
2023-02-21T01:39:18.822Z,116.23
2023-02-21T01:42:04.353Z,115.83
2023-02-21T01:45:09.443Z,121.60
2023-02-21T01:47:54.692Z,117.50
2023-02-21T01:50:39.993Z,117.77
2023-02-21T01:53:26.717Z,119.50
2023-02-21T01:56:13.430Z,115.07
2023-02-21T01:59:01.535Z,121.77
2023-02-21T02:01:52.940Z,131.13
2023-02-21T02:04:40.240Z,124.40
2023-02-21T02:07:25.843Z,121.27
2023-02-21T02:10:12.881Z,128.00
2023-02-21T02:13:07.035Z,132.60
2023-02-21T02:16:14.470Z,124.03
2023-02-21T02:19:18.516Z,120.37
2023-02-21T02:22:31.757Z,125.90
2023-02-21T02:25:30.595Z,125.37
2023-02-21T02:28:49.403Z,129.30
2023-02-21T02:32:11.966Z,117.33
2023-02-21T02:35:09.772Z,125.30
2023-02-21T02:38:06.910Z,122.23
2023-02-21T02:40:59.683Z,123.53
2023-02-21T02:43:54.097Z,121.07
2023-02-21T02:46:43.400Z,123.23
2023-02-21T02:49:32.920Z,118.00
2023-02-21T02:52:18.414Z,117.73
2023-02-21T02:55:22.745Z,120.93
2023-02-21T02:58:11.137Z,118.90
2023-02-21T03:01:15.313Z,119.77
2023-02-21T03:04:30.385Z,125.33
2023-02-21T03:07:36.512Z,129.70
2023-02-21T03:10:32.900Z,134.57
2023-02-21T03:13:26.399Z,125.73
2023-02-21T03:16:23.573Z,129.83
2023-02-21T03:19:16.703Z,131.30
2023-02-21T03:22:13.288Z,124.17
2023-02-21T03:25:01.687Z,136.27
2023-02-21T03:27:47.530Z,138.17
2023-02-21T03:30:32.696Z,134.77
2023-02-21T03:33:18.296Z,132.03
2023-02-21T03:36:06.065Z,130.13
2023-02-21T03:38:51.623Z,134.83
2023-02-21T03:41:36.778Z,134.77
2023-02-21T03:44:21.599Z,131.13
2023-02-21T03:47:06.900Z,136.57
2023-02-21T03:49:52.182Z,131.90
2023-02-21T03:52:37.411Z,138.73
2023-02-21T03:55:23.106Z,135.60
2023-02-21T03:58:08.315Z,140.40
2023-02-21T04:00:53.337Z,145.63
2023-02-21T04:03:38.884Z,134.70
2023-02-21T04:06:24.020Z,134.30
2023-02-21T04:09:09.748Z,135.23
2023-02-21T04:11:55.187Z,142.33
2023-02-21T04:14:40.715Z,142.73
2023-02-21T04:17:25.774Z,150.53
2023-02-21T04:20:11.115Z,152.63
2023-02-21T04:23:03.056Z,144.47
2023-02-21T04:25:49.127Z,142.90
2023-02-21T04:28:34.489Z,156.23
2023-02-21T04:31:19.550Z,147.30
2023-02-21T04:34:11.741Z,164.30
2023-02-21T04:36:57.293Z,162.07
2023-02-21T04:39:42.759Z,162.97
2023-02-21T04:42:27.818Z,166.10
2023-02-21T04:45:12.963Z,169.97
2023-02-21T04:47:58.138Z,167.30
2023-02-21T04:50:43.125Z,184.07
2023-02-21T04:53:28.390Z,191.53
2023-02-21T04:56:13.253Z,181.03
2023-02-21T04:58:58.704Z,177.90
2023-02-21T05:01:44.400Z,196.47
2023-02-21T05:04:29.756Z,179.63
2023-02-21T05:07:15.031Z,190.07
2023-02-21T05:09:59.737Z,197.23
2023-02-21T05:12:45.231Z,195.07
2023-02-21T05:15:30.927Z,202.50
2023-02-21T05:18:16.536Z,203.83
2023-02-21T05:21:03.265Z,198.40
2023-02-21T05:23:48.314Z,203.83
2023-02-21T05:26:36.359Z,198.27
2023-02-21T05:29:21.780Z,208.20
2023-02-21T05:32:06.996Z,218.77
2023-02-21T05:34:52.324Z,211.63
2023-02-21T05:37:37.475Z,210.50
2023-02-21T05:40:22.388Z,235.90
2023-02-21T05:43:07.826Z,229.27
2023-02-21T05:45:52.746Z,234.03
2023-02-21T05:48:38.336Z,237.17
2023-02-21T05:51:25.116Z,223.50
2023-02-21T05:54:16.510Z,240.93
2023-02-21T05:57:01.942Z,239.67
2023-02-21T05:59:47.668Z,227.23
2023-02-21T06:02:32.573Z,230.20
2023-02-21T06:05:19.282Z,217.33
2023-02-21T06:08:04.663Z,227.47
2023-02-21T06:10:49.803Z,239.47
2023-02-21T06:13:34.767Z,205.40
2023-02-21T06:16:20.358Z,205.87
2023-02-21T06:19:06.974Z,201.50
2023-02-21T06:21:52.287Z,202.00
2023-02-21T06:24:37.294Z,203.67
2023-02-21T06:27:22.141Z,203.90
2023-02-21T06:30:07.649Z,195.90
2023-02-21T06:32:52.852Z,197.67
2023-02-21T06:35:38.132Z,210.53
2023-02-21T06:38:23.248Z,209.40
2023-02-21T06:41:09.150Z,194.90
2023-02-21T06:43:56.853Z,192.70
2023-02-21T06:46:43.477Z,188.93
2023-02-21T06:49:28.474Z,191.73
2023-02-21T06:52:14.356Z,190.20
2023-02-21T06:54:59.414Z,192.83
2023-02-21T06:57:44.269Z,191.17
2023-02-21T07:00:29.911Z,186.23
2023-02-21T07:03:15.073Z,186.23
2023-02-21T07:06:00.034Z,184.83
2023-02-21T07:08:45.260Z,190.97
2023-02-21T07:11:31.903Z,185.30
2023-02-21T07:14:17.228Z,173.83
2023-02-21T07:17:02.486Z,172.60
2023-02-21T07:19:47.354Z,179.00
2023-02-21T07:22:32.761Z,176.63
2023-02-21T07:25:20.140Z,167.33
2023-02-21T07:28:05.718Z,184.23
2023-02-21T07:30:50.570Z,171.60
2023-02-21T07:33:35.926Z,175.50
2023-02-21T07:36:20.902Z,171.77
2023-02-21T07:39:06.129Z,165.90
2023-02-21T07:41:53.154Z,165.60
2023-02-21T07:44:38.512Z,169.53
2023-02-21T07:47:24.681Z,163.67
2023-02-21T07:50:10.048Z,167.13
2023-02-21T07:52:55.168Z,175.67
2023-02-21T07:55:40.488Z,174.13
2023-02-21T07:58:25.992Z,164.80
2023-02-21T08:01:11.432Z,180.43
2023-02-21T08:03:56.819Z,168.93
2023-02-21T08:06:42.037Z,180.60
2023-02-21T08:09:26.967Z,190.83
2023-02-21T08:12:12.312Z,152.57
2023-02-21T08:14:57.516Z,180.83
2023-02-21T08:17:43.397Z,173.93
2023-02-21T08:20:28.704Z,169.03
2023-02-21T08:23:13.956Z,170.67
2023-02-21T08:25:59.442Z,162.60
2023-02-21T08:28:44.904Z,178.57
2023-02-21T08:31:30.192Z,171.00
2023-02-21T08:34:15.584Z,184.13
2023-02-21T08:37:00.881Z,198.27
2023-02-21T08:39:47.285Z,194.37
2023-02-21T08:42:32.195Z,195.17
2023-02-21T08:45:19.643Z,208.07
2023-02-21T08:48:04.937Z,198.03
2023-02-21T08:50:50.509Z,185.57
2023-02-21T08:53:35.767Z,210.13
2023-02-21T08:56:22.942Z,197.47
2023-02-21T08:59:07.941Z,192.13
2023-02-21T09:01:52.680Z,188.37
2023-02-21T09:04:37.883Z,198.43
2023-02-21T09:07:23.180Z,205.53
2023-02-21T09:10:09.875Z,225.00
2023-02-21T09:12:54.983Z,190.50
2023-02-21T09:15:40.030Z,196.47
2023-02-21T09:18:25.541Z,228.83
2023-02-21T09:21:10.811Z,219.50
2023-02-21T09:23:56.645Z,200.17
2023-02-21T09:26:41.741Z,201.47
2023-02-21T09:29:31.576Z,220.83
2023-02-21T09:32:22.422Z,216.50
2023-02-21T09:35:08.916Z,217.37
2023-02-21T09:37:54.070Z,233.00
2023-02-21T09:40:38.840Z,214.83
2023-02-21T09:43:31.412Z,197.50
2023-02-21T09:46:37.883Z,205.30
2023-02-21T09:49:32.426Z,218.40
2023-02-21T09:52:41.274Z,205.67
2023-02-21T09:55:38.681Z,182.63
2023-02-21T09:58:23.982Z,210.60
2023-02-21T10:01:38.256Z,210.03
2023-02-21T10:04:45.396Z,230.43
2023-02-21T10:07:52.584Z,237.57
2023-02-21T10:10:46.446Z,225.43
2023-02-21T10:13:43.518Z,221.80
2023-02-21T10:16:37.022Z,245.03
2023-02-21T10:19:31.778Z,232.77
2023-02-21T10:22:24.069Z,230.30
2023-02-21T10:25:22.201Z,242.50
2023-02-21T10:28:14.572Z,221.80
2023-02-21T10:31:05.033Z,217.80
2023-02-21T10:33:50.775Z,209.53
2023-02-21T10:36:35.971Z,202.93
2023-02-21T10:39:37.580Z,180.10
2023-02-21T10:42:45.315Z,199.23
2023-02-21T10:45:36.254Z,179.33
2023-02-21T10:48:25.782Z,180.20
2023-02-21T10:51:12.400Z,184.87
2023-02-21T10:54:21.042Z,164.73
2023-02-21T10:57:13.135Z,171.40
2023-02-21T10:59:58.939Z,162.03
2023-02-21T11:02:44.517Z,163.87
2023-02-21T11:05:29.832Z,169.37
2023-02-21T11:08:15.068Z,160.40
2023-02-21T11:11:00.636Z,158.20
2023-02-21T11:13:45.628Z,149.30
2023-02-21T11:16:30.502Z,157.20
2023-02-21T11:19:15.748Z,145.27
2023-02-21T11:22:01.239Z,130.80
2023-02-21T11:24:58.532Z,133.43
2023-02-21T11:27:46.341Z,129.17
2023-02-21T11:30:38.454Z,137.23
2023-02-21T11:33:24.030Z,130.03
2023-02-21T11:36:18.772Z,125.37
2023-02-21T11:39:31.467Z,128.10
2023-02-21T11:42:29.689Z,128.20
2023-02-21T11:45:28.451Z,126.37
2023-02-21T11:48:17.014Z,116.80
2023-02-21T11:51:06.074Z,119.13
2023-02-21T11:53:51.286Z,131.47
2023-02-21T11:56:43.930Z,133.90
2023-02-21T12:00:03.503Z,128.97
2023-02-21T12:03:06.660Z,112.60
2023-02-21T12:05:59.169Z,103.37
2023-02-21T12:08:56.059Z,110.40
2023-02-21T12:12:02.134Z,107.43
2023-02-21T12:15:03.052Z,102.87
2023-02-21T12:17:54.272Z,99.50
2023-02-21T12:21:15.908Z,109.20
2023-02-21T12:24:27.884Z,101.73
2023-02-21T12:27:48.687Z,110.83
2023-02-21T12:31:01.256Z,95.43
2023-02-21T12:33:49.569Z,95.93
2023-02-21T12:36:56.817Z,96.90
2023-02-21T12:40:20.289Z,97.40
2023-02-21T12:43:27.235Z,90.03
2023-02-21T12:46:28.670Z,88.27
2023-02-21T12:49:13.658Z,80.07
2023-02-21T12:52:18.854Z,80.17
2023-02-21T12:55:22.121Z,83.07
2023-02-21T12:58:14.817Z,80.93
2023-02-21T13:01:08.481Z,93.30
2023-02-21T13:04:31.312Z,100.83
2023-02-21T13:07:41.176Z,98.60
2023-02-21T13:10:32.223Z,112.47
2023-02-21T13:13:23.733Z,121.73
2023-02-21T13:16:12.873Z,125.87
2023-02-21T13:19:03.124Z,122.30
2023-02-21T13:21:54.406Z,125.43
2023-02-21T13:24:39.386Z,127.03
2023-02-21T13:27:51.342Z,123.90
2023-02-21T13:30:42.531Z,113.27
2023-02-21T13:33:36.203Z,119.60
2023-02-21T13:36:24.396Z,100.87
2023-02-21T13:39:15.345Z,95.97
2023-02-21T13:42:24.563Z,97.97
2023-02-21T13:45:26.038Z,97.40
2023-02-21T13:48:21.893Z,98.80
2023-02-21T13:51:45.906Z,100.43
2023-02-21T13:54:31.391Z,96.70
2023-02-21T13:57:33.187Z,100.47
2023-02-21T14:00:21.520Z,97.73
2023-02-21T14:03:09.392Z,97.97
2023-02-21T14:05:57.829Z,104.47
2023-02-21T14:08:46.825Z,93.20
2023-02-21T14:11:39.095Z,97.60
2023-02-21T14:14:29.792Z,93.97
2023-02-21T14:17:20.267Z,91.77
2023-02-21T14:20:06.961Z,87.17
2023-02-21T14:22:52.224Z,94.37
2023-02-21T14:25:38.145Z,90.47
2023-02-21T14:29:20.350Z,91.63
2023-02-21T14:32:08.168Z,84.37
2023-02-21T14:34:56.944Z,80.63
2023-02-21T14:37:50.966Z,81.90
2023-02-21T14:40:49.005Z,86.27
2023-02-21T14:43:55.608Z,83.67
2023-02-21T14:46:41.226Z,84.77
2023-02-21T14:49:45.109Z,84.47
2023-02-21T14:52:59.387Z,83.17
2023-02-21T14:55:50.851Z,77.90
2023-02-21T14:58:50.548Z,80.47
2023-02-21T15:01:54.188Z,85.43
2023-02-21T15:04:51.188Z,90.47
2023-02-21T15:07:42.241Z,84.53
2023-02-21T15:10:29.786Z,87.13
2023-02-21T15:13:23.579Z,87.90
2023-02-21T15:16:12.289Z,92.00
2023-02-21T15:19:00.803Z,83.43
2023-02-21T15:21:46.065Z,81.83
2023-02-21T15:24:31.074Z,79.70
2023-02-21T15:27:16.435Z,78.30
2023-02-21T15:30:08.854Z,79.83
2023-02-21T15:32:58.947Z,79.90
2023-02-21T15:35:56.837Z,81.70
2023-02-21T15:38:51.257Z,82.33
2023-02-21T15:41:42.402Z,81.63
2023-02-21T15:44:32.327Z,81.00
2023-02-21T15:47:21.724Z,83.20
2023-02-21T15:50:22.123Z,115.90
2023-02-21T15:53:15.869Z,86.73
2023-02-21T15:56:27.025Z,78.73
2023-02-21T15:59:33.215Z,79.53
2023-02-21T16:02:22.153Z,82.37
2023-02-21T16:05:23.709Z,81.40
2023-02-21T16:08:14.850Z,79.53
2023-02-21T16:11:04.259Z,84.03
2023-02-21T16:13:49.576Z,84.30
2023-02-21T16:16:35.485Z,85.07
2023-02-21T16:19:23.197Z,83.33
2023-02-21T16:22:23.320Z,81.60
2023-02-21T16:25:11.568Z,85.20
2023-02-21T16:27:58.275Z,87.57
2023-02-21T16:30:43.492Z,91.23
2023-02-21T16:33:29.920Z,84.57
2023-02-21T16:36:32.578Z,85.40
2023-02-21T16:39:17.663Z,86.60
2023-02-21T16:42:03.123Z,90.83
2023-02-21T16:44:48.346Z,88.37
2023-02-21T16:47:33.195Z,87.67
2023-02-21T16:50:30.952Z,78.90
2023-02-21T16:53:17.337Z,85.00
2023-02-21T16:56:03.085Z,90.43
2023-02-21T16:58:51.237Z,84.90
2023-02-21T17:01:36.866Z,88.87
2023-02-21T17:04:24.531Z,84.30
2023-02-21T17:07:09.383Z,92.63
2023-02-21T17:09:54.846Z,89.07
2023-02-21T17:12:39.812Z,86.70
2023-02-21T17:15:25.131Z,79.80
2023-02-21T17:18:10.109Z,80.00
2023-02-21T17:20:55.904Z,77.30
2023-02-21T17:23:41.763Z,82.83
2023-02-21T17:26:27.236Z,86.77
2023-02-21T17:29:13.032Z,88.00
2023-02-21T17:31:58.626Z,88.90
2023-02-21T17:34:45.878Z,86.50
2023-02-21T17:37:31.151Z,86.23
2023-02-21T17:40:18.933Z,85.07
2023-02-21T17:43:03.997Z,82.00
2023-02-21T17:45:49.189Z,85.67
2023-02-21T17:48:34.494Z,86.77
2023-02-21T17:51:23.535Z,84.03
2023-02-21T17:54:09.085Z,90.80
2023-02-21T17:56:54.174Z,92.13
2023-02-21T17:59:39.465Z,98.67
2023-02-21T18:02:24.533Z,102.17
2023-02-21T18:05:09.862Z,99.47
2023-02-21T18:07:55.185Z,105.30
2023-02-21T18:10:40.496Z,103.37
2023-02-21T18:13:25.245Z,101.80
2023-02-21T18:16:10.694Z,109.40
2023-02-21T18:18:56.029Z,116.17
2023-02-21T18:21:41.870Z,128.87
2023-02-21T18:24:27.118Z,115.60
2023-02-21T18:27:12.874Z,126.40
2023-02-21T18:29:57.983Z,223.07
2023-02-21T18:32:43.701Z,120.97
2023-02-21T18:35:28.973Z,126.17
2023-02-21T18:38:14.936Z,120.23
2023-02-21T18:40:59.977Z,125.53
2023-02-21T18:43:44.674Z,112.60
2023-02-21T18:46:30.152Z,121.80
2023-02-21T18:49:15.400Z,137.70
2023-02-21T18:52:00.342Z,116.63
2023-02-21T18:54:48.042Z,123.53
2023-02-21T18:57:33.221Z,141.27
2023-02-21T19:00:19.060Z,147.20
2023-02-21T19:03:08.181Z,133.07
2023-02-21T19:05:53.630Z,132.20
2023-02-21T19:08:39.627Z,129.80
2023-02-21T19:11:25.046Z,143.53
2023-02-21T19:14:10.521Z,144.20
2023-02-21T19:16:56.410Z,141.30
2023-02-21T19:19:42.181Z,164.40
2023-02-21T19:22:28.523Z,171.23
2023-02-21T19:25:16.289Z,152.77
2023-02-21T19:28:01.679Z,150.90
2023-02-21T19:30:47.161Z,161.97
2023-02-21T19:33:34.007Z,153.00
2023-02-21T19:36:20.772Z,158.87
2023-02-21T19:39:07.957Z,192.37
2023-02-21T19:41:53.725Z,149.20
2023-02-21T19:44:39.227Z,163.90
2023-02-21T19:47:24.661Z,166.77
2023-02-21T19:50:10.628Z,170.03
2023-02-21T19:52:58.065Z,193.80
2023-02-21T19:55:43.251Z,171.07
2023-02-21T19:58:29.137Z,167.70
2023-02-21T20:01:15.035Z,172.53
2023-02-21T20:04:00.899Z,174.20
2023-02-21T20:06:46.655Z,207.13
2023-02-21T20:09:31.554Z,213.80
2023-02-21T20:12:16.904Z,168.23
2023-02-21T20:15:03.526Z,184.50
2023-02-21T20:17:48.912Z,168.63
2023-02-21T20:20:33.838Z,208.13
2023-02-21T20:23:19.406Z,191.17
2023-02-21T20:26:04.895Z,204.73
2023-02-21T20:28:51.418Z,174.93
2023-02-21T20:31:36.898Z,230.17
2023-02-21T20:34:23.595Z,231.17
2023-02-21T20:37:08.753Z,187.40
2023-02-21T20:39:54.089Z,225.67
2023-02-21T20:42:39.527Z,193.07
2023-02-21T20:45:25.237Z,203.70
2023-02-21T20:48:10.858Z,222.37
2023-02-21T20:50:56.320Z,211.67
2023-02-21T20:53:43.057Z,227.47
2023-02-21T20:56:32.945Z,217.83
2023-02-21T20:59:26.893Z,202.60
2023-02-21T21:02:11.845Z,204.13
2023-02-21T21:04:57.690Z,192.83
2023-02-21T21:07:44.367Z,176.00
2023-02-21T21:10:29.880Z,182.77
2023-02-21T21:13:16.381Z,188.00
2023-02-21T21:16:01.577Z,180.23
2023-02-21T21:18:46.953Z,189.60
2023-02-21T21:21:33.062Z,164.03
2023-02-21T21:24:18.227Z,198.97
2023-02-21T21:27:07.031Z,184.60
2023-02-21T21:29:53.827Z,196.33
2023-02-21T21:32:40.562Z,216.40
2023-02-21T21:35:26.051Z,167.63
2023-02-21T21:38:11.125Z,188.37
2023-02-21T21:40:57.895Z,191.50
2023-02-21T21:43:45.102Z,208.30
2023-02-21T21:46:30.557Z,195.00
2023-02-21T21:49:18.373Z,187.50
2023-02-21T21:52:04.444Z,211.87
2023-02-21T21:54:49.485Z,221.97
2023-02-21T21:57:35.157Z,197.93
2023-02-21T22:00:27.906Z,210.13
2023-02-21T22:03:13.765Z,193.97
2023-02-21T22:05:59.185Z,232.50
2023-02-21T22:08:44.530Z,212.77
2023-02-21T22:11:29.863Z,214.10
2023-02-21T22:14:17.146Z,207.63
2023-02-21T22:17:02.299Z,215.33
2023-02-21T22:19:47.609Z,182.20
2023-02-21T22:22:33.053Z,204.17
2023-02-21T22:25:20.911Z,179.03
2023-02-21T22:28:10.347Z,202.03
2023-02-21T22:30:55.795Z,204.03
2023-02-21T22:33:41.238Z,224.87
2023-02-21T22:36:26.460Z,212.17
2023-02-21T22:39:11.947Z,210.67
2023-02-21T22:41:57.206Z,209.20
2023-02-21T22:44:42.062Z,195.67
2023-02-21T22:47:26.886Z,169.77
2023-02-21T22:50:12.416Z,172.00
2023-02-21T22:53:00.142Z,199.83
2023-02-21T22:55:45.838Z,161.83
2023-02-21T22:58:30.744Z,187.00
2023-02-21T23:01:15.896Z,168.87
2023-02-21T23:04:00.952Z,156.87
2023-02-21T23:06:46.225Z,162.33
2023-02-21T23:09:31.454Z,147.20
2023-02-21T23:12:16.784Z,135.53
2023-02-21T23:15:01.627Z,127.43
2023-02-21T23:17:49.014Z,118.37
2023-02-21T23:20:34.453Z,122.40
2023-02-21T23:23:21.482Z,114.17
2023-02-21T23:26:06.667Z,112.40
2023-02-21T23:28:52.407Z,122.60
2023-02-21T23:31:37.592Z,116.27
2023-02-21T23:34:22.904Z,111.87
2023-02-21T23:37:09.160Z,106.80
2023-02-21T23:39:54.124Z,101.20
2023-02-21T23:42:39.110Z,92.13
2023-02-21T23:45:25.750Z,88.13
2023-02-21T23:48:12.667Z,95.20
2023-02-21T23:50:58.931Z,90.23
2023-02-21T23:53:43.988Z,89.27
2023-02-21T23:56:29.285Z,94.37
2023-02-21T23:59:14.858Z,91.13
